Daihatsumaru — JD2764 — position and weather

sailwx.info

Track history (hours):
 
Tides and Currents Weather Stations Pressure Air Temp Water Temp Dewpoint Dewpoint Depression Visibility Wind Speed Wind Dir Waves Ship Positions

Daihatsumaru

Last reported at 2016-Apr-28 04:28 UTC. Time now 2016-Apr-29 19:49 UTC.
Position N 34°37' E 135°01'.

Length 106 m; draft 4.5 m.

Type: Cargo ship. MMSI: 431000701.

Date/timePositionNaut miles runAvg speedWind from/ knotsBaromVisibWave heightAir tempDewpointWater temp
2016-Apr-28 04:28N 34°37' E 135°01'1314.8
2016-Apr-28 03:33N 34°38' E 135°18'6 4.9
2016-Apr-28 02:25N 34°41' E 135°23'0 0.0
2016-Apr-28 01:25N 34°41' E 135°23'0 0.0
2016-Apr-27 22:25N 34°41' E 135°23'3 2.7
2016-Apr-27 21:27N 34°40' E 135°21'0 0.0
2016-Apr-27 20:33N 34°40' E 135°21'8 8.1
2016-Apr-27 19:33N 34°35' E 135°13'1413.8
2016-Apr-27 18:33N 34°36' E 134°56'5 0.1
2016-Apr-26 03:30N 34°37' E 135°01'1414.7
2016-Apr-26 02:33N 34°39' E 135°18'5 4.7
2016-Apr-26 01:28N 34°41' E 135°23'0 0.0
2016-Apr-26 00:28N 34°41' E 135°23'0 0.0
2016-Apr-25 23:28N 34°41' E 135°23'0 0.0
2016-Apr-25 22:28N 34°41' E 135°23'0 0.0
2016-Apr-25 21:28N 34°41' E 135°23'0 0.0
2016-Apr-25 20:28N 34°41' E 135°23'0 0.0
2016-Apr-25 19:28N 34°41' E 135°23'0 0.0
2016-Apr-25 18:28N 34°41' E 135°23'0 0.0
2016-Apr-25 17:28N 34°41' E 135°23'0 0.0
2016-Apr-25 16:28N 34°41' E 135°23'0 0.0
2016-Apr-25 15:28N 34°41' E 135°23'0 0.0
2016-Apr-25 14:28N 34°41' E 135°23'0 0.0
2016-Apr-25 13:28N 34°41' E 135°23'0 0.0
2016-Apr-25 12:28N 34°41' E 135°23'0 0.0
2016-Apr-25 11:16N 34°41' E 135°23'0 0.0
2016-Apr-25 10:28N 34°41' E 135°23'0 0.0
2016-Apr-25 09:28N 34°41' E 135°23'0 0.0
2016-Apr-25 08:28N 34°41' E 135°23'0 0.0
2016-Apr-25 07:28N 34°41' E 135°23'0 0.0
2016-Apr-25 06:22N 34°41' E 135°23'0 0.0
2016-Apr-25 04:16N 34°41' E 135°23'0 0.0
2016-Apr-25 03:28N 34°41' E 135°23'0 0.0
2016-Apr-25 02:22N 34°41' E 135°23'0 0.0
2016-Apr-25 01:28N 34°41' E 135°23'0 0.0
2016-Apr-25 00:22N 34°41' E 135°23'0 0.0
2016-Apr-24 23:16N 34°41' E 135°23'0 0.0
2016-Apr-24 22:28N 34°41' E 135°23'0 0.0
2016-Apr-24 20:28N 34°41' E 135°23'0 0.0
2016-Apr-24 19:10N 34°41' E 135°23'0 0.0
2016-Apr-24 18:16N 34°41' E 135°23'0 0.0
2016-Apr-24 17:28N 34°41' E 135°23'0 0.0
2016-Apr-24 16:28N 34°41' E 135°23'0 0.0
2016-Apr-24 15:28N 34°41' E 135°23'0 0.0
2016-Apr-24 14:28N 34°41' E 135°23'0 0.0
2016-Apr-24 13:28N 34°41' E 135°23'0 0.0
2016-Apr-24 12:22N 34°41' E 135°23'0 0.0
2016-Apr-24 11:28N 34°41' E 135°23'0 0.0
2016-Apr-24 10:16N 34°41' E 135°23'0 0.0
2016-Apr-24 09:16N 34°41' E 135°23'0 0.0
2016-Apr-24 08:16N 34°41' E 135°23'0 0.0
2016-Apr-24 07:28N 34°41' E 135°23'0 0.0
2016-Apr-24 06:28N 34°41' E 135°23'0 0.0
2016-Apr-24 05:22N 34°41' E 135°23'0 0.0
2016-Apr-24 04:16N 34°41' E 135°23'0 0.0
2016-Apr-24 03:28N 34°41' E 135°23'0 0.0
2016-Apr-24 02:28N 34°41' E 135°23'0 0.0
2016-Apr-24 01:22N 34°41' E 135°23'0 0.0
2016-Apr-24 00:28N 34°41' E 135°23'0 0.0
2016-Apr-23 23:28N 34°41' E 135°23'0 0.0
2016-Apr-23 22:28N 34°41' E 135°23'0 0.0
2016-Apr-23 21:16N 34°41' E 135°23'0 0.0
2016-Apr-23 20:22N 34°41' E 135°23'0 0.0
2016-Apr-23 19:28N 34°41' E 135°23'0 0.0
2016-Apr-23 18:28N 34°41' E 135°23'0 0.0
2016-Apr-23 17:28N 34°41' E 135°23'0 0.0
2016-Apr-23 16:28N 34°41' E 135°23'0 0.0
2016-Apr-23 15:28N 34°41' E 135°23'0 0.0
2016-Apr-23 14:28N 34°41' E 135°23'0 0.0
2016-Apr-23 13:28N 34°41' E 135°23'0 0.0
2016-Apr-23 12:22N 34°41' E 135°23'0 0.0
2016-Apr-23 11:22N 34°41' E 135°23'0 0.0
2016-Apr-23 10:28N 34°41' E 135°23'0 0.0
2016-Apr-23 09:28N 34°41' E 135°23'0 0.0
2016-Apr-23 08:28N 34°41' E 135°23'0 0.0
2016-Apr-23 07:28N 34°41' E 135°23'0 0.0
2016-Apr-23 06:28N 34°41' E 135°23'0 0.0
2016-Apr-23 05:28N 34°41' E 135°23'0 0.0
2016-Apr-23 04:28N 34°41' E 135°23'0 0.0
2016-Apr-23 03:28N 34°41' E 135°23'0 0.0
2016-Apr-23 02:22N 34°41' E 135°23'0 0.0
2016-Apr-23 01:31N 34°41' E 135°23'0 0.0
2016-Apr-23 00:25N 34°41' E 135°23'0 0.0
2016-Apr-22 23:31N 34°41' E 135°23'3 2.4
2016-Apr-22 22:24N 34°40' E 135°21'0 0.1
2016-Apr-22 21:30N 34°40' E 135°21'0 0.0
2016-Apr-22 20:30N 34°40' E 135°21'0 0.0
2016-Apr-22 19:24N 34°40' E 135°21'0 0.0
2016-Apr-22 17:30N 34°40' E 135°21'0 0.0
2016-Apr-22 16:30N 34°40' E 135°21'0 0.0
2016-Apr-22 15:24N 34°40' E 135°21'0 0.0
2016-Apr-22 14:30N 34°40' E 135°21'0 0.0
2016-Apr-22 13:30N 34°40' E 135°21'0 0.1
2016-Apr-22 12:33N 34°40' E 135°21'1413.9
2016-Apr-22 11:33N 34°35' E 135°05'  
2016-Apr-20 04:33N 34°36' E 134°52'1212.0
2016-Apr-20 03:33N 34°36' E 135°07'1414.2
2016-Apr-20 02:33N 34°41' E 135°23'0 0.1
2016-Apr-20 01:23N 34°41' E 135°23'0 0.0
2016-Apr-20 00:29N 34°41' E 135°23'0 0.0
2016-Apr-19 23:17N 34°41' E 135°23'2 3.4
2016-Apr-19 22:33N 34°40' E 135°21'0 0.0
2016-Apr-19 21:29N 34°40' E 135°21'0 0.0
2016-Apr-19 20:29N 34°40' E 135°21'0 0.0
2016-Apr-19 18:23N 34°40' E 135°21'5 5.8
2016-Apr-19 17:34N 34°36' E 135°17'1414.0
2016-Apr-19 16:33N 34°37' E 134°60'  
Track history (hours):
 
Tides and Currents Weather Stations Pressure Air Temp Water Temp Dewpoint Dewpoint Depression Visibility Wind Speed Wind Dir Waves Ship Positions

Daihatsumaru

Last reported at 2016-Apr-28 04:28 UTC. Time now 2016-Apr-29 19:49 UTC.
Position N 34°37' E 135°01'.

Length 106 m; draft 4.5 m.

Type: Cargo ship. MMSI: 431000701.

Date/timePositionNaut miles runAvg speedWind from/ knotsBaromVisibWave heightAir tempDewpointWater temp
2016-Apr-28 04:28N 34°37' E 135°01'1314.8
2016-Apr-28 03:33N 34°38' E 135°18'6 4.9
2016-Apr-28 02:25N 34°41' E 135°23'0 0.0
2016-Apr-28 01:25N 34°41' E 135°23'0 0.0
2016-Apr-27 22:25N 34°41' E 135°23'3 2.7
2016-Apr-27 21:27N 34°40' E 135°21'0 0.0
2016-Apr-27 20:33N 34°40' E 135°21'8 8.1
2016-Apr-27 19:33N 34°35' E 135°13'1413.8
2016-Apr-27 18:33N 34°36' E 134°56'5 0.1
2016-Apr-26 03:30N 34°37' E 135°01'1414.7
2016-Apr-26 02:33N 34°39' E 135°18'5 4.7
2016-Apr-26 01:28N 34°41' E 135°23'0 0.0
2016-Apr-26 00:28N 34°41' E 135°23'0 0.0
2016-Apr-25 23:28N 34°41' E 135°23'0 0.0
2016-Apr-25 22:28N 34°41' E 135°23'0 0.0
2016-Apr-25 21:28N 34°41' E 135°23'0 0.0
2016-Apr-25 20:28N 34°41' E 135°23'0 0.0
2016-Apr-25 19:28N 34°41' E 135°23'0 0.0
2016-Apr-25 18:28N 34°41' E 135°23'0 0.0
2016-Apr-25 17:28N 34°41' E 135°23'0 0.0
2016-Apr-25 16:28N 34°41' E 135°23'0 0.0
2016-Apr-25 15:28N 34°41' E 135°23'0 0.0
2016-Apr-25 14:28N 34°41' E 135°23'0 0.0
2016-Apr-25 13:28N 34°41' E 135°23'0 0.0
2016-Apr-25 12:28N 34°41' E 135°23'0 0.0
2016-Apr-25 11:16N 34°41' E 135°23'0 0.0
2016-Apr-25 10:28N 34°41' E 135°23'0 0.0
2016-Apr-25 09:28N 34°41' E 135°23'0 0.0
2016-Apr-25 08:28N 34°41' E 135°23'0 0.0
2016-Apr-25 07:28N 34°41' E 135°23'0 0.0
2016-Apr-25 06:22N 34°41' E 135°23'0 0.0
2016-Apr-25 04:16N 34°41' E 135°23'0 0.0
2016-Apr-25 03:28N 34°41' E 135°23'0 0.0
2016-Apr-25 02:22N 34°41' E 135°23'0 0.0
2016-Apr-25 01:28N 34°41' E 135°23'0 0.0
2016-Apr-25 00:22N 34°41' E 135°23'0 0.0
2016-Apr-24 23:16N 34°41' E 135°23'0 0.0
2016-Apr-24 22:28N 34°41' E 135°23'0 0.0
2016-Apr-24 20:28N 34°41' E 135°23'0 0.0
2016-Apr-24 19:10N 34°41' E 135°23'0 0.0
2016-Apr-24 18:16N 34°41' E 135°23'0 0.0
2016-Apr-24 17:28N 34°41' E 135°23'0 0.0
2016-Apr-24 16:28N 34°41' E 135°23'0 0.0
2016-Apr-24 15:28N 34°41' E 135°23'0 0.0
2016-Apr-24 14:28N 34°41' E 135°23'0 0.0
2016-Apr-24 13:28N 34°41' E 135°23'0 0.0
2016-Apr-24 12:22N 34°41' E 135°23'0 0.0
2016-Apr-24 11:28N 34°41' E 135°23'0 0.0
2016-Apr-24 10:16N 34°41' E 135°23'0 0.0
2016-Apr-24 09:16N 34°41' E 135°23'0 0.0
2016-Apr-24 08:16N 34°41' E 135°23'0 0.0
2016-Apr-24 07:28N 34°41' E 135°23'0 0.0
2016-Apr-24 06:28N 34°41' E 135°23'0 0.0
2016-Apr-24 05:22N 34°41' E 135°23'0 0.0
2016-Apr-24 04:16N 34°41' E 135°23'0 0.0
2016-Apr-24 03:28N 34°41' E 135°23'0 0.0
2016-Apr-24 02:28N 34°41' E 135°23'0 0.0
2016-Apr-24 01:22N 34°41' E 135°23'0 0.0
2016-Apr-24 00:28N 34°41' E 135°23'0 0.0
2016-Apr-23 23:28N 34°41' E 135°23'0 0.0
2016-Apr-23 22:28N 34°41' E 135°23'0 0.0
2016-Apr-23 21:16N 34°41' E 135°23'0 0.0
2016-Apr-23 20:22N 34°41' E 135°23'0 0.0
2016-Apr-23 19:28N 34°41' E 135°23'0 0.0
2016-Apr-23 18:28N 34°41' E 135°23'0 0.0
2016-Apr-23 17:28N 34°41' E 135°23'0 0.0
2016-Apr-23 16:28N 34°41' E 135°23'0 0.0
2016-Apr-23 15:28N 34°41' E 135°23'0 0.0
2016-Apr-23 14:28N 34°41' E 135°23'0 0.0
2016-Apr-23 13:28N 34°41' E 135°23'0 0.0
2016-Apr-23 12:22N 34°41' E 135°23'0 0.0
2016-Apr-23 11:22N 34°41' E 135°23'0 0.0
2016-Apr-23 10:28N 34°41' E 135°23'0 0.0
2016-Apr-23 09:28N 34°41' E 135°23'0 0.0
2016-Apr-23 08:28N 34°41' E 135°23'0 0.0
2016-Apr-23 07:28N 34°41' E 135°23'0 0.0
2016-Apr-23 06:28N 34°41' E 135°23'0 0.0
2016-Apr-23 05:28N 34°41' E 135°23'0 0.0
2016-Apr-23 04:28N 34°41' E 135°23'0 0.0
2016-Apr-23 03:28N 34°41' E 135°23'0 0.0
2016-Apr-23 02:22N 34°41' E 135°23'0 0.0
2016-Apr-23 01:31N 34°41' E 135°23'0 0.0
2016-Apr-23 00:25N 34°41' E 135°23'0 0.0
2016-Apr-22 23:31N 34°41' E 135°23'3 2.4
2016-Apr-22 22:24N 34°40' E 135°21'0 0.1
2016-Apr-22 21:30N 34°40' E 135°21'0 0.0
2016-Apr-22 20:30N 34°40' E 135°21'0 0.0
2016-Apr-22 19:24N 34°40' E 135°21'0 0.0
2016-Apr-22 17:30N 34°40' E 135°21'0 0.0
2016-Apr-22 16:30N 34°40' E 135°21'0 0.0
2016-Apr-22 15:24N 34°40' E 135°21'0 0.0
2016-Apr-22 14:30N 34°40' E 135°21'0 0.0
2016-Apr-22 13:30N 34°40' E 135°21'0 0.1
2016-Apr-22 12:33N 34°40' E 135°21'1413.9
2016-Apr-22 11:33N 34°35' E 135°05'  
2016-Apr-20 04:33N 34°36' E 134°52'1212.0
2016-Apr-20 03:33N 34°36' E 135°07'1414.2
2016-Apr-20 02:33N 34°41' E 135°23'0 0.1
2016-Apr-20 01:23N 34°41' E 135°23'0 0.0
2016-Apr-20 00:29N 34°41' E 135°23'0 0.0
2016-Apr-19 23:17N 34°41' E 135°23'2 3.4
2016-Apr-19 22:33N 34°40' E 135°21'0 0.0
2016-Apr-19 21:29N 34°40' E 135°21'0 0.0
2016-Apr-19 20:29N 34°40' E 135°21'0 0.0
2016-Apr-19 18:23N 34°40' E 135°21'5 5.8
2016-Apr-19 17:34N 34°36' E 135°17'1414.0
2016-Apr-19 16:33N 34°37' E 134°60'  

Dump ship's entire track history